createdAt,value
2023-04-07T00:01:15.980Z,59.30
2023-04-07T00:03:43.990Z,59.77
2023-04-07T00:06:11.976Z,60.45
2023-04-07T00:08:39.607Z,60.24
2023-04-07T00:11:09.329Z,60.24
2023-04-07T00:13:36.827Z,59.77
2023-04-07T00:16:04.161Z,59.96
2023-04-07T00:18:31.921Z,60.29
2023-04-07T00:20:59.418Z,60.59
2023-04-07T00:23:27.514Z,60.38
2023-04-07T00:25:55.099Z,59.51
2023-04-07T00:28:24.548Z,59.19
2023-04-07T00:30:51.856Z,59.79
2023-04-07T00:33:19.971Z,60.41
2023-04-07T00:35:47.954Z,60.66
2023-04-07T00:38:15.813Z,60.70
2023-04-07T00:40:43.341Z,61.00
2023-04-07T00:43:11.066Z,60.26
2023-04-07T00:45:40.113Z,61.54
2023-04-07T00:48:08.164Z,62.65
2023-04-07T00:50:35.581Z,62.06
2023-04-07T00:53:05.352Z,61.65
2023-04-07T00:55:32.950Z,61.54
2023-04-07T00:58:00.800Z,62.11
2023-04-07T01:00:28.311Z,61.75
2023-04-07T01:03:01.718Z,61.85
2023-04-07T01:05:38.783Z,61.51
2023-04-07T01:08:13.476Z,61.69
2023-04-07T01:10:50.359Z,61.64
2023-04-07T01:13:24.289Z,62.07
2023-04-07T01:15:54.872Z,62.03
2023-04-07T01:18:29.486Z,62.42
2023-04-07T01:21:02.393Z,62.34
2023-04-07T01:23:49.491Z,63.00
2023-04-07T01:26:22.296Z,63.95
2023-04-07T01:29:11.341Z,63.44
2023-04-07T01:31:42.118Z,64.49
2023-04-07T01:34:11.893Z,64.48
2023-04-07T01:36:40.111Z,64.29
2023-04-07T01:39:09.728Z,64.55
2023-04-07T01:41:38.789Z,64.79
2023-04-07T01:44:08.143Z,64.89
2023-04-07T01:46:36.028Z,64.73
2023-04-07T01:49:06.693Z,65.57
2023-04-07T01:51:35.417Z,66.06
2023-04-07T01:54:05.265Z,66.67
2023-04-07T01:56:32.623Z,66.57
2023-04-07T01:59:00.374Z,66.67
2023-04-07T02:01:29.156Z,66.95
2023-04-07T02:04:05.632Z,67.51
2023-04-07T02:06:39.338Z,68.03
2023-04-07T02:09:11.092Z,68.21
2023-04-07T02:11:40.550Z,68.89
2023-04-07T02:14:10.298Z,68.96
2023-04-07T02:16:39.474Z,69.02
2023-04-07T02:19:07.656Z,69.40
2023-04-07T02:21:37.276Z,69.71
2023-04-07T02:24:06.751Z,70.33
2023-04-07T02:26:35.459Z,70.64
2023-04-07T02:29:03.425Z,70.47
2023-04-07T02:31:31.482Z,71.16
2023-04-07T02:33:59.348Z,71.28
2023-04-07T02:36:26.566Z,71.24
2023-04-07T02:38:59.015Z,72.02
2023-04-07T02:41:26.535Z,71.59
2023-04-07T02:43:54.961Z,70.96
2023-04-07T02:46:22.559Z,71.62
2023-04-07T02:48:50.367Z,71.34
2023-04-07T02:51:17.825Z,71.15
2023-04-07T02:53:45.650Z,70.98
2023-04-07T02:56:15.759Z,71.00
2023-04-07T02:58:43.663Z,70.77
2023-04-07T03:01:11.122Z,71.23
2023-04-07T03:03:40.142Z,71.86
2023-04-07T03:06:08.050Z,71.69
2023-04-07T03:08:35.889Z,71.91
2023-04-07T03:11:03.329Z,70.90
2023-04-07T03:13:32.763Z,70.92
2023-04-07T03:16:00.149Z,71.63
2023-04-07T03:18:28.334Z,71.72
2023-04-07T03:20:55.716Z,71.28
2023-04-07T03:23:23.585Z,71.62
2023-04-07T03:25:51.021Z,71.77
2023-04-07T03:28:18.784Z,71.95
2023-04-07T03:30:47.858Z,71.87
2023-04-07T03:33:16.129Z,72.31
2023-04-07T03:35:43.671Z,72.16
2023-04-07T03:38:11.498Z,72.33
2023-04-07T03:40:38.953Z,71.86
2023-04-07T03:43:07.093Z,71.74
2023-04-07T03:45:34.709Z,72.26
2023-04-07T03:48:04.714Z,71.90
2023-04-07T03:50:32.224Z,72.49
2023-04-07T03:53:00.105Z,72.08
2023-04-07T03:55:28.220Z,72.32
2023-04-07T03:57:56.615Z,72.10
2023-04-07T04:00:24.137Z,72.08
2023-04-07T04:02:52.347Z,72.09
2023-04-07T04:05:21.354Z,72.30
2023-04-07T04:07:49.257Z,72.50
2023-04-07T04:10:16.700Z,72.87
2023-04-07T04:12:44.688Z,73.97
2023-04-07T04:15:12.139Z,73.85
2023-04-07T04:17:42.049Z,74.33
2023-04-07T04:20:10.275Z,74.76
2023-04-07T04:22:39.744Z,74.19
2023-04-07T04:25:07.519Z,74.24
2023-04-07T04:27:35.776Z,74.39
2023-04-07T04:30:03.683Z,74.19
2023-04-07T04:32:31.670Z,74.18
2023-04-07T04:34:58.996Z,75.03
2023-04-07T04:37:27.571Z,74.73
2023-04-07T04:39:56.484Z,74.54
2023-04-07T04:42:24.367Z,74.23
2023-04-07T04:44:51.930Z,74.31
2023-04-07T04:47:19.859Z,74.84
2023-04-07T04:49:47.250Z,74.90
2023-04-07T04:52:15.001Z,74.78
2023-04-07T04:54:42.481Z,74.87
2023-04-07T04:57:12.092Z,75.35
2023-04-07T04:59:39.535Z,75.24
2023-04-07T05:02:07.426Z,76.11
2023-04-07T05:04:34.927Z,75.98
2023-04-07T05:07:03.082Z,76.38
2023-04-07T05:09:31.127Z,76.54
2023-04-07T05:11:58.947Z,75.89
2023-04-07T05:14:28.367Z,75.54
2023-04-07T05:16:56.214Z,75.81
2023-04-07T05:19:23.582Z,75.96
2023-04-07T05:21:51.504Z,76.21
2023-04-07T05:24:18.858Z,75.76
2023-04-07T05:26:46.672Z,75.83
2023-04-07T05:29:14.284Z,75.78
2023-04-07T05:31:43.653Z,76.26
2023-04-07T05:34:11.189Z,76.05
2023-04-07T05:36:39.260Z,75.93
2023-04-07T05:39:06.656Z,74.88
2023-04-07T05:41:34.348Z,75.46
2023-04-07T05:44:01.833Z,74.72
2023-04-07T05:46:29.688Z,75.29
2023-04-07T05:49:00.759Z,75.16
2023-04-07T05:51:32.718Z,74.30
2023-04-07T05:54:02.611Z,74.36
2023-04-07T05:56:30.396Z,74.41
2023-04-07T05:58:58.164Z,74.00
2023-04-07T06:01:27.041Z,74.58
2023-04-07T06:03:55.319Z,74.12
2023-04-07T06:06:24.752Z,75.08
2023-04-07T06:08:52.285Z,75.67
2023-04-07T06:11:20.473Z,76.09
2023-04-07T06:13:48.461Z,77.01
2023-04-07T06:16:17.437Z,76.62
2023-04-07T06:18:46.688Z,76.27
2023-04-07T06:21:15.246Z,76.86
2023-04-07T06:23:44.196Z,76.15
2023-04-07T06:26:12.930Z,76.33
2023-04-07T06:28:40.442Z,76.55
2023-04-07T06:31:08.754Z,75.96
2023-04-07T06:33:36.605Z,75.96
2023-04-07T06:36:04.893Z,75.71
2023-04-07T06:38:32.486Z,75.61
2023-04-07T06:41:01.802Z,75.61
2023-04-07T06:43:30.952Z,75.71
2023-04-07T06:45:58.928Z,75.18
2023-04-07T06:48:26.560Z,74.68
2023-04-07T06:50:54.701Z,75.36
2023-04-07T06:53:23.788Z,75.05
2023-04-07T06:55:51.806Z,74.91
2023-04-07T06:58:20.679Z,75.43
2023-04-07T07:00:48.390Z,74.70
2023-04-07T07:03:16.652Z,75.08
2023-04-07T07:05:45.071Z,74.94
2023-04-07T07:08:12.444Z,74.71
2023-04-07T07:10:40.469Z,75.16
2023-04-07T07:13:07.984Z,74.94
2023-04-07T07:15:37.232Z,74.73
2023-04-07T07:18:05.146Z,75.02
2023-04-07T07:20:32.943Z,75.79
2023-04-07T07:23:00.773Z,74.97
2023-04-07T07:25:28.932Z,75.39
2023-04-07T07:27:56.491Z,74.62
2023-04-07T07:30:24.746Z,75.10
2023-04-07T07:32:54.859Z,74.16
2023-04-07T07:35:23.179Z,74.16
2023-04-07T07:37:50.890Z,74.68
2023-04-07T07:40:18.904Z,73.99
2023-04-07T07:42:47.223Z,74.21
2023-04-07T07:45:15.380Z,74.79
2023-04-07T07:47:43.467Z,73.92
2023-04-07T07:50:13.678Z,74.01
2023-04-07T07:52:41.306Z,73.94
2023-04-07T07:55:09.760Z,74.06
2023-04-07T07:57:37.657Z,73.19
2023-04-07T08:00:07.311Z,73.59
2023-04-07T08:02:35.118Z,73.22
2023-04-07T08:05:04.276Z,73.07
2023-04-07T08:07:33.450Z,72.77
2023-04-07T08:10:01.351Z,73.93
2023-04-07T08:12:28.792Z,72.90
2023-04-07T08:14:56.859Z,73.81
2023-04-07T08:17:24.338Z,73.34
2023-04-07T08:19:52.358Z,73.77
2023-04-07T08:22:19.994Z,74.40
2023-04-07T08:24:49.725Z,73.72
2023-04-07T08:27:20.037Z,74.13
2023-04-07T08:29:59.449Z,74.43
2023-04-07T08:32:37.965Z,73.43
2023-04-07T08:35:06.399Z,73.20
2023-04-07T08:37:34.972Z,73.34
2023-04-07T08:40:05.517Z,73.69
2023-04-07T08:42:35.225Z,74.01
2023-04-07T08:45:06.502Z,73.61
2023-04-07T08:47:35.213Z,73.65
2023-04-07T08:50:07.591Z,73.60
2023-04-07T08:52:41.824Z,73.62
2023-04-07T08:55:11.501Z,73.86
2023-04-07T08:57:39.936Z,72.80
2023-04-07T09:00:09.575Z,73.19
2023-04-07T09:02:39.058Z,73.44
2023-04-07T09:05:08.949Z,74.12
2023-04-07T09:07:38.469Z,73.74
2023-04-07T09:10:07.918Z,74.06
2023-04-07T09:12:36.958Z,75.09
2023-04-07T09:15:06.529Z,74.32
2023-04-07T09:17:34.090Z,73.28
2023-04-07T09:20:03.064Z,73.99
2023-04-07T09:22:38.960Z,73.07
2023-04-07T09:25:14.636Z,73.63
2023-04-07T09:27:54.839Z,72.59
2023-04-07T09:30:23.868Z,73.62
2023-04-07T09:32:51.363Z,72.64
2023-04-07T09:35:19.365Z,72.33
2023-04-07T09:38:01.874Z,72.78
2023-04-07T09:40:29.716Z,72.98
2023-04-07T09:42:58.847Z,72.66
2023-04-07T09:45:34.525Z,72.33
2023-04-07T09:48:06.529Z,72.38
2023-04-07T09:50:35.680Z,73.04
2023-04-07T09:53:05.746Z,72.51
2023-04-07T09:55:34.071Z,71.55
2023-04-07T09:58:05.335Z,71.53
2023-04-07T10:00:33.681Z,72.01
2023-04-07T10:03:01.694Z,72.28
2023-04-07T10:05:30.183Z,72.43
2023-04-07T10:07:57.838Z,72.07
2023-04-07T10:10:27.588Z,71.08
2023-04-07T10:12:56.655Z,71.24
2023-04-07T10:15:26.472Z,71.38
2023-04-07T10:17:54.631Z,72.02
2023-04-07T10:20:23.909Z,72.03
2023-04-07T10:22:53.100Z,71.95
2023-04-07T10:25:24.303Z,71.51
2023-04-07T10:27:56.622Z,71.92
2023-04-07T10:30:28.048Z,71.14
2023-04-07T10:32:56.086Z,71.52
2023-04-07T10:35:24.733Z,70.78
2023-04-07T10:38:12.860Z,71.68
2023-04-07T10:40:42.669Z,71.31
2023-04-07T10:43:11.174Z,72.47
2023-04-07T10:45:56.889Z,71.66
2023-04-07T10:48:24.125Z,71.64
2023-04-07T10:51:16.414Z,72.04
2023-04-07T10:54:02.053Z,72.61
2023-04-07T10:57:03.342Z,73.32
2023-04-07T10:59:31.492Z,74.28
2023-04-07T11:02:31.239Z,75.36
2023-04-07T11:04:58.965Z,74.41
2023-04-07T11:07:45.485Z,74.80
2023-04-07T11:10:13.725Z,75.34
2023-04-07T11:12:42.013Z,74.92
2023-04-07T11:15:21.105Z,74.32
2023-04-07T11:18:08.928Z,75.92
2023-04-07T11:20:46.134Z,76.63
2023-04-07T11:23:15.807Z,76.52
2023-04-07T11:25:44.785Z,76.19
2023-04-07T11:28:13.721Z,75.25
2023-04-07T11:30:47.584Z,76.29
2023-04-07T11:33:19.152Z,76.99
2023-04-07T11:35:54.820Z,76.18
2023-04-07T11:38:26.493Z,77.00
2023-04-07T11:40:56.068Z,78.21
2023-04-07T11:43:25.928Z,77.00
2023-04-07T11:46:07.956Z,77.75
2023-04-07T11:48:39.350Z,78.29
2023-04-07T11:51:15.175Z,77.23
2023-04-07T11:53:43.580Z,78.18
2023-04-07T11:56:13.663Z,78.70
2023-04-07T11:58:47.430Z,79.08
2023-04-07T12:01:14.971Z,78.48
2023-04-07T12:03:58.716Z,78.92
2023-04-07T12:06:30.228Z,78.30
2023-04-07T12:08:58.456Z,77.77
2023-04-07T12:11:26.069Z,78.49
2023-04-07T12:13:54.307Z,78.73
2023-04-07T12:16:22.596Z,78.13
2023-04-07T12:18:51.529Z,78.10
2023-04-07T12:21:20.865Z,77.95
2023-04-07T12:23:49.328Z,78.20
2023-04-07T12:26:17.057Z,78.62
2023-04-07T12:28:45.103Z,78.21
2023-04-07T12:31:12.586Z,78.46
2023-04-07T12:33:40.667Z,78.62
2023-04-07T12:36:08.435Z,78.90
2023-04-07T12:38:50.258Z,78.92
2023-04-07T12:41:17.965Z,78.96
2023-04-07T12:43:46.950Z,79.16
2023-04-07T12:46:15.034Z,78.85
2023-04-07T12:48:44.307Z,78.59
2023-04-07T12:51:12.106Z,79.02
2023-04-07T12:53:41.621Z,78.76
2023-04-07T12:56:09.275Z,79.68
2023-04-07T12:58:37.417Z,79.21
2023-04-07T13:01:05.343Z,79.68
2023-04-07T13:03:33.983Z,79.51
2023-04-07T13:06:02.008Z,78.78
2023-04-07T13:08:30.307Z,79.82
2023-04-07T13:10:59.133Z,79.29
2023-04-07T13:13:27.961Z,79.38
2023-04-07T13:15:55.432Z,79.34
2023-04-07T13:18:23.377Z,79.38
2023-04-07T13:21:03.607Z,79.19
2023-04-07T13:23:43.319Z,79.14
2023-04-07T13:26:12.674Z,79.02
2023-04-07T13:28:41.470Z,79.19
2023-04-07T13:31:09.163Z,79.27
2023-04-07T13:33:37.301Z,78.91
2023-04-07T13:36:04.878Z,79.48
2023-04-07T13:38:36.227Z,79.38
2023-04-07T13:41:03.956Z,79.18
2023-04-07T13:43:33.455Z,80.15
2023-04-07T13:46:01.123Z,79.18
2023-04-07T13:48:29.226Z,79.13
2023-04-07T13:50:57.006Z,79.95
2023-04-07T13:53:25.202Z,79.90
2023-04-07T13:55:52.942Z,79.92
2023-04-07T13:58:21.051Z,80.66
2023-04-07T14:00:50.772Z,79.65
2023-04-07T14:03:19.215Z,80.20
2023-04-07T14:05:47.159Z,79.71
2023-04-07T14:08:15.181Z,80.61
2023-04-07T14:10:43.094Z,79.80
2023-04-07T14:13:11.242Z,80.05
2023-04-07T14:15:38.659Z,80.44
2023-04-07T14:18:08.790Z,80.45
2023-04-07T14:20:37.212Z,80.41
2023-04-07T14:23:05.233Z,80.65
2023-04-07T14:25:32.925Z,80.77
2023-04-07T14:28:00.908Z,80.18
2023-04-07T14:30:28.595Z,80.69
2023-04-07T14:32:56.650Z,80.72
2023-04-07T14:35:25.826Z,79.36
2023-04-07T14:37:53.884Z,79.87
2023-04-07T14:40:21.645Z,79.46
2023-04-07T14:42:50.043Z,79.30
2023-04-07T14:45:17.814Z,79.76
2023-04-07T14:47:45.811Z,80.33
2023-04-07T14:50:13.492Z,80.24
2023-04-07T14:52:42.917Z,79.75
2023-04-07T14:55:10.565Z,80.51
2023-04-07T14:57:38.627Z,81.05
2023-04-07T15:00:07.281Z,80.95
2023-04-07T15:02:36.695Z,80.83
2023-04-07T15:05:05.119Z,80.90
2023-04-07T15:07:33.505Z,81.40
2023-04-07T15:10:02.551Z,81.37
2023-04-07T15:12:31.031Z,81.13
2023-04-07T15:14:58.869Z,81.04
2023-04-07T15:17:40.012Z,80.78
2023-04-07T15:20:11.665Z,80.37
2023-04-07T15:22:40.167Z,81.35
2023-04-07T15:25:09.425Z,81.01
2023-04-07T15:27:37.618Z,81.36
2023-04-07T15:30:06.148Z,80.88
2023-04-07T15:32:34.328Z,80.56
2023-04-07T15:35:01.857Z,80.76
2023-04-07T15:37:29.783Z,80.90
2023-04-07T15:39:57.262Z,81.05
2023-04-07T15:42:26.636Z,81.21
2023-04-07T15:44:54.308Z,81.09
2023-04-07T15:47:22.453Z,81.30
2023-04-07T15:49:50.091Z,81.12
2023-04-07T15:52:18.109Z,81.71
2023-04-07T15:54:45.645Z,81.94
2023-04-07T15:57:13.560Z,81.61
2023-04-07T15:59:42.579Z,81.69
2023-04-07T16:02:13.020Z,81.74
2023-04-07T16:04:41.936Z,81.95
2023-04-07T16:07:10.072Z,81.71
2023-04-07T16:09:38.050Z,81.86
2023-04-07T16:12:06.302Z,81.90
2023-04-07T16:14:34.177Z,81.85
2023-04-07T16:17:03.812Z,82.05
2023-04-07T16:19:31.383Z,82.48
2023-04-07T16:21:59.415Z,82.56
2023-04-07T16:24:27.186Z,82.78
2023-04-07T16:26:55.004Z,81.88
2023-04-07T16:29:24.928Z,81.63
2023-04-07T16:31:53.699Z,80.25
2023-04-07T16:34:23.085Z,80.09
2023-04-07T16:36:51.189Z,80.29
2023-04-07T16:39:19.576Z,81.33
2023-04-07T16:41:47.412Z,81.52
2023-04-07T16:44:15.208Z,82.34
2023-04-07T16:46:43.475Z,82.61
2023-04-07T16:49:11.068Z,83.02
2023-04-07T16:51:40.539Z,83.68
2023-04-07T16:54:07.999Z,83.73
2023-04-07T16:56:36.019Z,83.68
2023-04-07T16:59:04.077Z,83.60
2023-04-07T17:01:32.050Z,84.23
2023-04-07T17:03:59.730Z,84.31
2023-04-07T17:06:28.070Z,85.17
2023-04-07T17:08:57.161Z,85.15
2023-04-07T17:11:25.485Z,85.78
2023-04-07T17:13:53.018Z,85.57
2023-04-07T17:16:21.484Z,85.54
2023-04-07T17:18:49.403Z,85.64
2023-04-07T17:21:17.662Z,85.65
2023-04-07T17:23:45.336Z,85.49
2023-04-07T17:26:14.866Z,85.54
2023-04-07T17:28:42.391Z,86.26
2023-04-07T17:31:12.926Z,85.95
2023-04-07T17:33:40.607Z,86.51
2023-04-07T17:36:08.968Z,87.13
2023-04-07T17:38:36.643Z,87.42
2023-04-07T17:41:04.783Z,86.60
2023-04-07T17:43:33.769Z,86.81
2023-04-07T17:46:01.740Z,86.38
2023-04-07T17:48:29.321Z,86.72
2023-04-07T17:50:57.165Z,86.63
2023-04-07T17:53:24.837Z,86.52
2023-04-07T17:55:52.744Z,87.00
2023-04-07T17:58:20.186Z,87.27
2023-04-07T18:00:49.650Z,86.97
2023-04-07T18:03:17.785Z,86.85
2023-04-07T18:05:47.252Z,86.71
2023-04-07T18:08:14.943Z,87.09
2023-04-07T18:10:43.082Z,87.72
2023-04-07T18:13:10.553Z,86.89
2023-04-07T18:15:38.541Z,87.06
2023-04-07T18:18:07.768Z,86.13
2023-04-07T18:20:35.641Z,86.77
2023-04-07T18:23:03.121Z,86.43
2023-04-07T18:25:30.853Z,87.12
2023-04-07T18:27:58.487Z,87.13
2023-04-07T18:30:26.288Z,87.05
2023-04-07T18:32:53.616Z,87.02
2023-04-07T18:35:23.409Z,87.30
2023-04-07T18:37:51.011Z,87.00
2023-04-07T18:40:19.243Z,87.38
2023-04-07T18:42:46.770Z,87.90
2023-04-07T18:45:14.988Z,87.95
2023-04-07T18:47:42.632Z,88.18
2023-04-07T18:50:11.519Z,88.11
2023-04-07T18:52:40.826Z,87.51
2023-04-07T18:55:09.881Z,86.83
2023-04-07T18:57:37.914Z,86.72
2023-04-07T19:00:07.304Z,86.75
2023-04-07T19:02:34.954Z,86.54
2023-04-07T19:05:03.702Z,86.46
2023-04-07T19:07:31.238Z,86.22
2023-04-07T19:10:00.696Z,86.94
2023-04-07T19:12:28.376Z,86.05
2023-04-07T19:14:56.210Z,86.40
2023-04-07T19:17:23.952Z,86.82
2023-04-07T19:19:51.835Z,87.27
2023-04-07T19:22:19.657Z,87.27
2023-04-07T19:24:48.121Z,87.78
2023-04-07T19:27:17.398Z,87.02
2023-04-07T19:29:45.394Z,86.79
2023-04-07T19:32:12.929Z,86.99
2023-04-07T19:34:41.195Z,86.68
2023-04-07T19:37:08.933Z,87.78
2023-04-07T19:39:37.356Z,88.00
2023-04-07T19:42:05.077Z,87.40
2023-04-07T19:44:34.893Z,87.25
2023-04-07T19:47:02.853Z,87.59
2023-04-07T19:49:30.877Z,88.83
2023-04-07T19:51:58.608Z,88.02
2023-04-07T19:54:26.544Z,87.72
2023-04-07T19:56:54.537Z,87.23
2023-04-07T19:59:22.450Z,86.95
2023-04-07T20:01:52.967Z,87.08
2023-04-07T20:04:21.038Z,87.78
2023-04-07T20:06:48.512Z,87.13
2023-04-07T20:09:16.342Z,87.71
2023-04-07T20:11:44.525Z,86.58
2023-04-07T20:14:12.519Z,87.48
2023-04-07T20:16:40.213Z,88.05
2023-04-07T20:19:10.356Z,87.88
2023-04-07T20:21:37.982Z,88.08
2023-04-07T20:24:06.358Z,88.27
2023-04-07T20:26:34.116Z,87.61
2023-04-07T20:29:02.467Z,87.00
2023-04-07T20:31:30.044Z,86.26
2023-04-07T20:33:59.564Z,86.40
2023-04-07T20:36:28.522Z,86.92
2023-04-07T20:38:56.672Z,88.31
2023-04-07T20:41:24.215Z,88.02
2023-04-07T20:43:52.283Z,87.66
2023-04-07T20:46:19.833Z,87.39
2023-04-07T20:48:48.019Z,86.73
2023-04-07T20:51:15.885Z,86.66
2023-04-07T20:53:45.311Z,86.60
2023-04-07T20:56:12.921Z,86.92
2023-04-07T20:58:41.101Z,86.94
2023-04-07T21:01:08.866Z,87.74
2023-04-07T21:03:37.264Z,88.00
2023-04-07T21:06:04.976Z,87.83
2023-04-07T21:08:33.270Z,87.66
2023-04-07T21:11:02.441Z,88.12
2023-04-07T21:13:30.602Z,87.64
2023-04-07T21:15:58.569Z,88.69
2023-04-07T21:18:26.475Z,88.21
2023-04-07T21:20:56.691Z,87.90
2023-04-07T21:23:24.701Z,88.68
2023-04-07T21:25:52.233Z,87.91
2023-04-07T21:28:21.771Z,88.54
2023-04-07T21:30:49.432Z,89.06
2023-04-07T21:33:17.381Z,88.93
2023-04-07T21:35:44.831Z,88.82
2023-04-07T21:38:12.840Z,88.95
2023-04-07T21:40:40.478Z,88.54
2023-04-07T21:43:08.481Z,88.50
2023-04-07T21:45:37.626Z,88.24
2023-04-07T21:48:05.951Z,88.57
2023-04-07T21:50:33.603Z,87.64
2023-04-07T21:53:01.452Z,87.28
2023-04-07T21:55:29.026Z,87.11
2023-04-07T21:57:57.232Z,87.25
2023-04-07T22:00:24.680Z,87.25
2023-04-07T22:02:54.058Z,87.43
2023-04-07T22:05:21.799Z,87.83
2023-04-07T22:07:49.583Z,87.76
2023-04-07T22:10:17.029Z,87.38
2023-04-07T22:12:44.781Z,87.88
2023-04-07T22:15:12.422Z,87.66
2023-04-07T22:17:40.519Z,87.42
2023-04-07T22:20:11.113Z,87.62
2023-04-07T22:22:39.299Z,87.26
2023-04-07T22:25:07.543Z,87.93
2023-04-07T22:27:35.484Z,87.40
2023-04-07T22:30:03.162Z,86.94
2023-04-07T22:32:31.080Z,86.31
2023-04-07T22:34:58.455Z,85.80
2023-04-07T22:37:27.846Z,85.94
2023-04-07T22:39:55.389Z,86.02
2023-04-07T22:42:23.986Z,86.83
2023-04-07T22:44:51.504Z,86.94
2023-04-07T22:47:20.813Z,86.44
2023-04-07T22:49:48.526Z,85.88
2023-04-07T22:52:16.449Z,85.22
2023-04-07T22:54:45.884Z,84.42
2023-04-07T22:57:13.839Z,84.85
2023-04-07T22:59:41.288Z,85.17
2023-04-07T23:02:09.804Z,85.08
2023-04-07T23:04:37.396Z,85.58
2023-04-07T23:07:05.459Z,84.49
2023-04-07T23:09:33.026Z,83.64
2023-04-07T23:12:02.395Z,84.17
2023-04-07T23:14:29.785Z,84.14
2023-04-07T23:16:57.858Z,85.02
2023-04-07T23:19:25.567Z,84.52
2023-04-07T23:21:53.705Z,84.04
2023-04-07T23:24:21.249Z,83.88
2023-04-07T23:26:49.488Z,84.59
2023-04-07T23:29:18.677Z,84.97
2023-04-07T23:31:47.185Z,84.78
2023-04-07T23:34:14.593Z,84.94
2023-04-07T23:36:42.583Z,84.57
2023-04-07T23:39:10.005Z,83.91
2023-04-07T23:41:37.994Z,83.87
2023-04-07T23:44:05.423Z,84.11
2023-04-07T23:46:34.848Z,84.13
2023-04-07T23:49:02.381Z,84.24
2023-04-07T23:51:30.287Z,84.15
2023-04-07T23:53:57.625Z,83.56
2023-04-07T23:56:25.622Z,82.89
2023-04-07T23:58:53.036Z,83.05
